createdAt,value
2022-08-19T00:00:22.941Z,4.00
2022-08-19T00:03:43.948Z,3.45
2022-08-19T00:07:05.948Z,5.30
2022-08-19T00:10:28.961Z,3.58
2022-08-19T00:13:49.978Z,4.25
2022-08-19T00:17:10.965Z,3.85
2022-08-19T00:20:33.948Z,3.95
2022-08-19T00:23:55.964Z,3.88
2022-08-19T00:27:26.511Z,3.70
2022-08-19T00:30:47.956Z,3.72
2022-08-19T00:34:10.958Z,3.88
2022-08-19T00:37:32.976Z,3.85
2022-08-19T00:40:57.945Z,4.20
2022-08-19T00:44:27.963Z,4.22
2022-08-19T00:47:48.952Z,3.97
2022-08-19T00:51:09.967Z,4.50
2022-08-19T00:54:31.954Z,4.38
2022-08-19T00:57:55.976Z,4.57
2022-08-19T01:01:19.057Z,4.82
2022-08-19T01:04:39.968Z,5.25
2022-08-19T01:08:01.991Z,4.72
2022-08-19T01:11:22.971Z,4.57
2022-08-19T01:14:44.970Z,4.57
2022-08-19T01:18:07.974Z,4.97
2022-08-19T01:21:44.989Z,4.63
2022-08-19T01:25:06.986Z,4.57
2022-08-19T01:28:42.299Z,4.93
2022-08-19T01:32:02.964Z,4.30
2022-08-19T01:35:25.993Z,4.47
2022-08-19T01:38:51.982Z,4.88
2022-08-19T01:42:13.982Z,4.30
2022-08-19T01:45:37.965Z,4.30
2022-08-19T01:48:59.982Z,4.82
2022-08-19T01:52:20.981Z,4.88
2022-08-19T01:55:41.980Z,4.53
2022-08-19T01:59:11.977Z,4.82
2022-08-19T02:02:32.993Z,4.25
2022-08-19T02:05:55.002Z,4.82
2022-08-19T02:09:16.979Z,4.80
2022-08-19T02:12:37.976Z,5.10
2022-08-19T02:15:59.012Z,4.97
2022-08-19T02:19:22.015Z,5.63
2022-08-19T02:22:43.147Z,5.85
2022-08-19T02:26:06.004Z,5.03
2022-08-19T02:29:27.004Z,5.13
2022-08-19T02:32:48.016Z,4.95
2022-08-19T02:36:08.989Z,5.10
2022-08-19T02:39:30.074Z,5.35
2022-08-19T02:42:51.005Z,4.95
2022-08-19T02:46:12.026Z,5.03
2022-08-19T02:49:34.810Z,5.38
2022-08-19T02:52:56.024Z,5.30
2022-08-19T02:56:22.033Z,5.55
2022-08-19T02:59:39.095Z,5.70
2022-08-19T03:06:27.037Z,5.22
2022-08-19T03:09:47.999Z,5.13
2022-08-19T03:13:11.020Z,5.35
2022-08-19T03:16:37.998Z,4.93
2022-08-19T03:19:59.022Z,6.40
2022-08-19T03:23:21.004Z,5.53
2022-08-19T03:26:42.027Z,5.25
2022-08-19T03:30:03.005Z,6.40
2022-08-19T03:33:27.612Z,5.30
2022-08-19T03:36:49.051Z,5.47
2022-08-19T03:40:16.359Z,5.80
2022-08-19T03:43:37.006Z,6.07
2022-08-19T03:46:58.062Z,5.82
2022-08-19T03:50:20.001Z,5.18
2022-08-19T03:53:42.029Z,5.53
2022-08-19T03:57:05.041Z,5.43
2022-08-19T04:00:27.017Z,5.38
2022-08-19T04:03:48.087Z,5.60
2022-08-19T04:07:09.012Z,4.78
2022-08-19T04:10:30.056Z,5.25
2022-08-19T04:13:53.026Z,5.30
2022-08-19T04:17:16.071Z,5.35
2022-08-19T04:20:38.040Z,4.90
2022-08-19T04:23:59.055Z,6.38
2022-08-19T04:27:20.026Z,6.13
2022-08-19T04:30:41.052Z,6.97
2022-08-19T04:34:02.048Z,6.57
2022-08-19T04:37:23.054Z,6.72
2022-08-19T04:41:02.035Z,6.45
2022-08-19T04:44:26.063Z,6.20
2022-08-19T04:47:57.817Z,5.72
2022-08-19T04:51:23.032Z,6.05
2022-08-19T04:54:44.031Z,5.82
2022-08-19T04:58:08.061Z,5.63
2022-08-19T05:01:33.126Z,5.75
2022-08-19T05:04:54.040Z,6.00
2022-08-19T05:08:15.290Z,6.75
2022-08-19T05:11:41.046Z,5.53
2022-08-19T05:15:02.042Z,5.65
2022-08-19T05:18:42.048Z,5.38
2022-08-19T05:22:22.061Z,6.05
2022-08-19T05:25:43.054Z,5.93
2022-08-19T05:29:05.064Z,5.80
2022-08-19T05:32:26.060Z,6.22
2022-08-19T05:35:47.083Z,6.22
2022-08-19T05:39:09.053Z,5.93
2022-08-19T05:42:31.064Z,5.47
2022-08-19T05:45:55.067Z,7.22
2022-08-19T05:49:16.082Z,5.22
2022-08-19T05:52:37.053Z,4.97
2022-08-19T05:55:58.073Z,5.13
2022-08-19T05:59:22.061Z,6.00
2022-08-19T06:02:46.114Z,5.43
2022-08-19T06:06:10.060Z,4.57
2022-08-19T06:09:31.090Z,5.25
2022-08-19T06:12:52.069Z,4.85
2022-08-19T06:16:13.072Z,5.07
2022-08-19T06:19:40.490Z,4.20
2022-08-19T06:23:03.080Z,4.97
2022-08-19T06:26:27.054Z,4.72
2022-08-19T06:29:48.073Z,5.28
2022-08-19T06:33:12.084Z,5.35
2022-08-19T06:36:41.082Z,5.05
2022-08-19T06:40:03.137Z,4.47
2022-08-19T06:43:24.072Z,4.35
2022-08-19T06:46:54.846Z,4.93
2022-08-19T06:50:16.083Z,6.22
2022-08-19T06:53:37.095Z,5.25
2022-08-19T06:56:58.080Z,5.05
2022-08-19T07:00:22.164Z,5.05
2022-08-19T07:03:48.080Z,4.88
2022-08-19T07:07:24.099Z,4.13
2022-08-19T07:10:45.108Z,5.38
2022-08-19T07:14:06.135Z,5.45
2022-08-19T07:17:28.084Z,5.85
2022-08-19T07:20:49.113Z,6.53
2022-08-19T07:24:11.092Z,5.72
2022-08-19T07:27:33.578Z,5.13
2022-08-19T07:30:54.077Z,4.82
2022-08-19T07:34:16.105Z,5.25
2022-08-19T07:37:39.100Z,4.40
2022-08-19T07:41:00.109Z,4.35
2022-08-19T07:44:22.081Z,5.00
2022-08-19T07:47:49.136Z,4.47
2022-08-19T07:51:16.098Z,4.18
2022-08-19T07:54:50.094Z,4.90
2022-08-19T07:58:12.109Z,3.90
2022-08-19T08:01:41.839Z,5.15
2022-08-19T08:05:21.122Z,6.57
2022-08-19T08:09:00.114Z,4.75
2022-08-19T08:12:34.590Z,5.20
2022-08-19T08:15:56.446Z,5.75
2022-08-19T08:19:25.280Z,4.85
2022-08-19T08:22:58.089Z,4.93
2022-08-19T08:26:20.118Z,4.60
2022-08-19T08:29:45.111Z,4.50
2022-08-19T08:33:06.178Z,4.65
2022-08-19T08:36:27.116Z,5.00
2022-08-19T08:39:48.403Z,4.30
2022-08-19T08:43:32.404Z,4.57
2022-08-19T08:47:02.126Z,4.57
2022-08-19T08:50:30.149Z,4.07
2022-08-19T08:53:44.346Z,3.95
2022-08-19T08:57:00.121Z,3.50
2022-08-19T09:00:29.122Z,3.88
2022-08-19T09:03:53.165Z,3.83
2022-08-19T09:07:34.770Z,3.60
2022-08-19T09:11:08.155Z,3.78
2022-08-19T09:15:10.116Z,3.47
2022-08-19T09:18:31.135Z,3.58
2022-08-19T09:21:53.116Z,4.47
2022-08-19T09:25:14.156Z,3.78
2022-08-19T09:28:36.120Z,4.53
2022-08-19T09:32:00.117Z,4.55
2022-08-19T09:35:21.133Z,4.03
2022-08-19T09:39:16.083Z,3.78
2022-08-19T09:42:37.144Z,4.32
2022-08-19T09:45:58.132Z,4.05
2022-08-19T09:49:19.182Z,3.42
2022-08-19T09:52:40.140Z,3.30
2022-08-19T09:56:17.152Z,3.08
2022-08-19T09:59:40.143Z,3.90
2022-08-19T10:03:01.239Z,3.45
2022-08-19T10:06:45.736Z,3.28
2022-08-19T10:10:03.172Z,3.95
2022-08-19T10:13:24.160Z,3.33
2022-08-19T10:16:45.165Z,3.60
2022-08-19T10:20:06.136Z,2.72
2022-08-19T10:23:27.158Z,3.28
2022-08-19T10:26:59.063Z,3.25
2022-08-19T10:30:21.153Z,3.05
2022-08-19T10:33:53.896Z,3.38
2022-08-19T10:37:15.186Z,3.45
2022-08-19T10:40:40.165Z,2.67
2022-08-19T10:44:04.158Z,3.47
2022-08-19T10:47:25.705Z,3.40
2022-08-19T10:51:05.158Z,3.20
2022-08-19T10:54:33.327Z,3.83
2022-08-19T10:58:04.147Z,3.45
2022-08-19T11:01:25.218Z,2.88
2022-08-19T11:04:46.151Z,3.30
2022-08-19T11:08:07.245Z,2.92
2022-08-19T11:11:48.184Z,3.53
2022-08-19T11:15:09.178Z,3.35
2022-08-19T11:18:30.159Z,3.03
2022-08-19T11:21:54.195Z,3.15
2022-08-19T11:25:18.177Z,2.85
2022-08-19T11:28:39.185Z,3.13
2022-08-19T11:32:02.176Z,4.40
2022-08-19T11:35:23.160Z,2.80
2022-08-19T11:38:47.213Z,2.92
2022-08-19T11:42:08.183Z,3.50
2022-08-19T11:45:49.179Z,3.10
2022-08-19T11:49:17.173Z,2.78
2022-08-19T11:52:40.191Z,3.85
2022-08-19T11:56:23.171Z,3.63
2022-08-19T11:59:56.182Z,3.20
2022-08-19T12:03:36.218Z,4.10
2022-08-19T12:06:58.189Z,3.83
2022-08-19T12:10:20.657Z,3.22
2022-08-19T12:18:28.066Z,3.20
2022-08-19T12:21:52.192Z,3.42
2022-08-19T12:25:14.196Z,3.67
2022-08-19T12:28:42.199Z,4.50
2022-08-19T12:32:10.386Z,4.05
2022-08-19T12:36:04.186Z,3.65
2022-08-19T12:39:30.221Z,3.25
2022-08-19T12:42:51.190Z,4.35
2022-08-19T12:46:23.703Z,3.20
2022-08-19T12:49:59.228Z,3.50
2022-08-19T12:53:21.190Z,3.25
2022-08-19T12:57:08.187Z,3.47
2022-08-19T13:00:35.259Z,3.58
2022-08-19T13:04:29.205Z,3.90
2022-08-19T13:07:56.409Z,3.35
2022-08-19T13:11:29.217Z,4.68
2022-08-19T13:15:20.475Z,4.38
2022-08-19T13:19:12.220Z,3.78
2022-08-19T13:26:14.216Z,4.88
2022-08-19T13:34:00.212Z,3.95
2022-08-19T13:37:24.227Z,4.57
2022-08-19T13:44:46.234Z,4.32
2022-08-19T13:48:16.244Z,4.13
2022-08-19T13:52:49.985Z,3.70
2022-08-19T13:55:36.198Z,3.95
2022-08-19T13:59:17.216Z,4.60
2022-08-19T14:02:43.231Z,4.93
2022-08-19T14:06:10.223Z,4.82
2022-08-19T14:09:51.225Z,4.90
2022-08-19T14:13:16.221Z,4.47
2022-08-19T14:17:03.232Z,6.00
2022-08-19T14:25:00.236Z,6.40
2022-08-19T14:28:22.227Z,7.70
2022-08-19T14:31:53.240Z,6.95
2022-08-19T14:36:02.241Z,8.80
2022-08-19T14:39:55.264Z,10.23
2022-08-19T14:43:20.231Z,7.68
2022-08-19T14:50:35.231Z,6.82
2022-08-19T14:53:58.265Z,7.97
2022-08-19T14:57:46.316Z,8.93
2022-08-19T15:01:28.313Z,9.23
2022-08-19T15:04:58.062Z,9.45
2022-08-19T15:08:24.263Z,8.50
2022-08-19T15:11:48.257Z,8.30
2022-08-19T15:15:11.250Z,7.95
2022-08-19T15:18:53.239Z,7.32
2022-08-19T15:22:39.242Z,8.07
2022-08-19T15:26:04.237Z,7.15
2022-08-19T15:29:47.260Z,6.60
2022-08-19T15:33:12.267Z,5.97
2022-08-19T15:36:33.251Z,6.30
2022-08-19T15:39:54.288Z,6.70
2022-08-19T15:43:15.271Z,5.65
2022-08-19T15:46:40.252Z,5.40
2022-08-19T15:50:01.279Z,5.28
2022-08-19T15:53:23.276Z,5.78
2022-08-19T15:57:02.278Z,4.30
2022-08-19T16:00:41.263Z,4.70
2022-08-19T16:04:21.264Z,4.80
2022-08-19T16:07:42.297Z,3.97
2022-08-19T16:11:03.260Z,3.63
2022-08-19T16:14:24.296Z,4.63
2022-08-19T16:17:45.271Z,4.55
2022-08-19T16:21:19.285Z,4.05
2022-08-19T16:24:42.270Z,4.78
2022-08-19T16:28:07.404Z,4.30
2022-08-19T16:31:22.286Z,4.20
2022-08-19T16:34:44.273Z,4.57
2022-08-19T16:38:05.273Z,4.25
2022-08-19T16:41:27.334Z,4.25
2022-08-19T16:44:49.281Z,4.60
2022-08-19T16:48:11.466Z,3.72
2022-08-19T16:51:32.258Z,3.55
2022-08-19T16:54:53.270Z,3.33
2022-08-19T16:58:14.305Z,4.13
2022-08-19T17:01:35.366Z,4.60
2022-08-19T17:04:58.178Z,4.22
2022-08-19T17:08:29.287Z,3.92
2022-08-19T17:11:50.329Z,4.38
2022-08-19T17:15:11.288Z,3.83
2022-08-19T17:18:33.290Z,4.18
2022-08-19T17:21:54.290Z,3.58
2022-08-19T17:25:15.324Z,3.60
2022-08-19T17:28:39.276Z,4.82
2022-08-19T17:32:00.302Z,4.22
2022-08-19T17:35:26.300Z,4.47
2022-08-19T17:38:47.310Z,5.43
2022-08-19T17:42:08.391Z,4.18
2022-08-19T17:45:29.308Z,3.35
2022-08-19T17:48:52.467Z,3.30
2022-08-19T17:52:13.324Z,4.18
2022-08-19T17:55:34.306Z,3.33
2022-08-19T17:59:00.461Z,4.13
2022-08-19T18:02:23.316Z,4.35
2022-08-19T18:05:48.345Z,4.10
2022-08-19T18:09:09.299Z,3.67
2022-08-19T18:12:30.312Z,4.20
2022-08-19T18:15:51.313Z,4.78
2022-08-19T18:19:12.309Z,3.97
2022-08-19T18:22:43.283Z,3.42
2022-08-19T18:26:04.293Z,3.58
2022-08-19T18:29:25.321Z,5.18
2022-08-19T18:32:48.299Z,4.13
2022-08-19T18:36:10.347Z,3.92
2022-08-19T18:39:49.362Z,4.15
2022-08-19T18:43:29.322Z,4.00
2022-08-19T18:47:08.310Z,4.28
2022-08-19T18:50:29.328Z,4.30
2022-08-19T18:53:52.322Z,4.30
2022-08-19T18:57:13.347Z,4.18
2022-08-19T19:00:34.319Z,5.43
2022-08-19T19:03:59.331Z,4.50
2022-08-19T19:07:22.325Z,3.53
2022-08-19T19:10:43.390Z,4.38
2022-08-19T19:14:04.359Z,4.30
2022-08-19T19:17:32.331Z,2.88
2022-08-19T19:20:54.323Z,4.03
2022-08-19T19:24:15.336Z,3.92
2022-08-19T19:27:36.317Z,3.55
2022-08-19T19:30:57.340Z,3.25
2022-08-19T19:34:29.038Z,3.80
2022-08-19T19:37:51.337Z,3.13
2022-08-19T19:41:12.412Z,4.00
2022-08-19T19:44:33.356Z,3.95
2022-08-19T19:47:56.539Z,4.10
2022-08-19T19:51:18.342Z,4.18
2022-08-19T19:54:39.353Z,3.17
2022-08-19T19:58:08.326Z,3.15
2022-08-19T20:01:30.381Z,3.08
2022-08-19T20:04:51.352Z,3.25
2022-08-19T20:08:30.357Z,3.05
2022-08-19T20:11:57.342Z,3.70
2022-08-19T20:15:19.370Z,4.40
2022-08-19T20:18:40.361Z,2.88
2022-08-19T20:22:03.351Z,3.08
2022-08-19T20:25:25.390Z,3.55
2022-08-19T20:28:49.526Z,3.05
2022-08-19T20:32:19.337Z,2.90
2022-08-19T20:35:40.362Z,3.35
2022-08-19T20:39:01.333Z,2.95
2022-08-19T20:42:22.361Z,2.53
2022-08-19T20:45:43.340Z,2.80
2022-08-19T20:49:05.883Z,2.85
2022-08-19T20:52:26.351Z,2.72
2022-08-19T20:55:47.356Z,2.67
2022-08-19T20:59:11.384Z,3.60
2022-08-19T21:02:34.404Z,3.45
2022-08-19T21:05:55.420Z,3.20
2022-08-19T21:09:16.383Z,3.03
2022-08-19T21:12:37.365Z,3.20
2022-08-19T21:15:58.364Z,3.17
2022-08-19T21:19:23.713Z,3.60
2022-08-19T21:22:45.362Z,3.90
2022-08-19T21:26:07.372Z,3.47
2022-08-19T21:29:28.361Z,3.53
2022-08-19T21:32:52.487Z,4.25
2022-08-19T21:36:14.372Z,3.75
2022-08-19T21:39:35.408Z,3.58
2022-08-19T21:42:57.376Z,4.10
2022-08-19T21:46:18.394Z,4.28
2022-08-19T21:49:39.359Z,4.03
2022-08-19T21:53:01.384Z,4.30
2022-08-19T21:56:22.380Z,4.00
2022-08-19T21:59:44.018Z,4.30
2022-08-19T22:03:05.370Z,4.63
2022-08-19T22:06:26.378Z,4.13
2022-08-19T22:09:47.385Z,4.13
2022-08-19T22:13:10.393Z,4.53
2022-08-19T22:16:31.393Z,4.65
2022-08-19T22:19:52.454Z,5.40
2022-08-19T22:23:17.386Z,5.03
2022-08-19T22:26:38.388Z,5.05
2022-08-19T22:29:59.405Z,4.75
2022-08-19T22:33:29.395Z,5.78
2022-08-19T22:36:50.399Z,5.43
2022-08-19T22:40:12.440Z,4.93
2022-08-19T22:43:39.468Z,5.40
2022-08-19T22:47:00.401Z,6.05
2022-08-19T22:50:23.417Z,6.40
2022-08-19T22:53:45.394Z,5.80
2022-08-19T22:57:06.431Z,6.45
2022-08-19T23:00:27.516Z,6.70
2022-08-19T23:03:48.413Z,7.63
2022-08-19T23:07:09.398Z,8.15
2022-08-19T23:10:30.415Z,9.38
2022-08-19T23:13:53.414Z,9.32
2022-08-19T23:17:14.430Z,9.63
2022-08-19T23:20:37.389Z,11.10
2022-08-19T23:23:58.430Z,11.15
2022-08-19T23:27:37.396Z,13.05
2022-08-19T23:31:01.429Z,14.40
2022-08-19T23:34:22.422Z,14.02
2022-08-19T23:37:44.481Z,15.73
2022-08-19T23:41:07.406Z,16.17
2022-08-19T23:44:28.423Z,17.40
2022-08-19T23:47:49.407Z,16.20
2022-08-19T23:51:11.426Z,15.48
2022-08-19T23:54:43.233Z,14.68
2022-08-19T23:58:04.440Z,14.07
